sensor_id;sensor_type;location;lat;lon;timestamp;temperature;humidity
17348;DHT22;8791;50.876;4.342;2023-02-01T00:00:31;8.50;99.90
17348;DHT22;8791;50.876;4.342;2023-02-01T00:02:59;8.50;99.90
17348;DHT22;8791;50.876;4.342;2023-02-01T00:05:26;8.50;99.90
17348;DHT22;8791;50.876;4.342;2023-02-01T00:07:53;8.60;99.90
17348;DHT22;8791;50.876;4.342;2023-02-01T00:10:20;8.50;99.90
17348;DHT22;8791;50.876;4.342;2023-02-01T00:12:47;8.40;99.90
17348;DHT22;8791;50.876;4.342;2023-02-01T00:15:14;8.40;99.90
17348;DHT22;8791;50.876;4.342;2023-02-01T00:17:42;8.40;99.90
17348;DHT22;8791;50.876;4.342;2023-02-01T00:20:10;8.30;99.90
17348;DHT22;8791;50.876;4.342;2023-02-01T00:22:37;8.30;99.90
17348;DHT22;8791;50.876;4.342;2023-02-01T00:25:04;8.30;99.90
17348;DHT22;8791;50.876;4.342;2023-02-01T00:27:31;8.40;99.90
17348;DHT22;8791;50.876;4.342;2023-02-01T00:29:58;8.30;99.90
17348;DHT22;8791;50.876;4.342;2023-02-01T00:32:25;8.20;99.90
17348;DHT22;8791;50.876;4.342;2023-02-01T00:34:53;8.30;99.90
17348;DHT22;8791;50.876;4.342;2023-02-01T00:37:20;8.40;99.90
17348;DHT22;8791;50.876;4.342;2023-02-01T00:39:47;8.40;99.90
17348;DHT22;8791;50.876;4.342;2023-02-01T00:42:15;8.30;99.90
17348;DHT22;8791;50.876;4.342;2023-02-01T00:44:41;8.30;99.90
17348;DHT22;8791;50.876;4.342;2023-02-01T00:47:08;8.40;99.90
17348;DHT22;8791;50.876;4.342;2023-02-01T00:49:35;8.30;99.90
17348;DHT22;8791;50.876;4.342;2023-02-01T00:52:03;8.20;99.90
17348;DHT22;8791;50.876;4.342;2023-02-01T00:54:30;8.40;99.90
17348;DHT22;8791;50.876;4.342;2023-02-01T00:56:57;8.40;99.90
17348;DHT22;8791;50.876;4.342;2023-02-01T00:59:24;8.40;99.90
17348;DHT22;8791;50.876;4.342;2023-02-01T01:01:51;8.40;99.90
17348;DHT22;8791;50.876;4.342;2023-02-01T01:04:18;8.30;99.90
17348;DHT22;8791;50.876;4.342;2023-02-01T01:06:45;8.40;99.90
17348;DHT22;8791;50.876;4.342;2023-02-01T01:09:13;8.50;99.90
17348;DHT22;8791;50.876;4.342;2023-02-01T01:11:39;8.50;99.90
17348;DHT22;8791;50.876;4.342;2023-02-01T01:14:07;8.30;99.90
17348;DHT22;8791;50.876;4.342;2023-02-01T01:16:35;8.30;99.90
17348;DHT22;8791;50.876;4.342;2023-02-01T01:19:03;8.30;99.90
17348;DHT22;8791;50.876;4.342;2023-02-01T01:21:30;8.40;99.90
17348;DHT22;8791;50.876;4.342;2023-02-01T01:23:57;8.20;99.90
17348;DHT22;8791;50.876;4.342;2023-02-01T01:26:27;8.10;99.90
17348;DHT22;8791;50.876;4.342;2023-02-01T01:28:55;8.20;99.90
17348;DHT22;8791;50.876;4.342;2023-02-01T01:31:22;8.20;99.90
17348;DHT22;8791;50.876;4.342;2023-02-01T01:33:50;8.20;99.90
17348;DHT22;8791;50.876;4.342;2023-02-01T01:36:18;8.30;99.90
17348;DHT22;8791;50.876;4.342;2023-02-01T01:38:45;8.20;99.90
17348;DHT22;8791;50.876;4.342;2023-02-01T01:41:14;8.20;99.90
17348;DHT22;8791;50.876;4.342;2023-02-01T01:43:49;8.20;99.90
17348;DHT22;8791;50.876;4.342;2023-02-01T01:46:18;8.20;99.90
17348;DHT22;8791;50.876;4.342;2023-02-01T01:48:46;8.20;99.90
17348;DHT22;8791;50.876;4.342;2023-02-01T01:51:17;8.20;99.90
17348;DHT22;8791;50.876;4.342;2023-02-01T01:53:51;8.20;99.90
17348;DHT22;8791;50.876;4.342;2023-02-01T01:56:21;8.10;99.90
17348;DHT22;8791;50.876;4.342;2023-02-01T01:58:49;8.20;99.90
17348;DHT22;8791;50.876;4.342;2023-02-01T02:01:16;8.30;99.90
17348;DHT22;8791;50.876;4.342;2023-02-01T02:03:44;8.30;99.90
17348;DHT22;8791;50.876;4.342;2023-02-01T02:06:19;8.20;99.90
17348;DHT22;8791;50.876;4.342;2023-02-01T02:08:49;8.20;99.90
17348;DHT22;8791;50.876;4.342;2023-02-01T02:11:17;8.20;99.90
17348;DHT22;8791;50.876;4.342;2023-02-01T02:13:47;8.10;99.90
17348;DHT22;8791;50.876;4.342;2023-02-01T02:16:31;8.00;99.90
17348;DHT22;8791;50.876;4.342;2023-02-01T02:25:43;7.80;99.90
17348;DHT22;8791;50.876;4.342;2023-02-01T02:28:35;7.80;99.90
17348;DHT22;8791;50.876;4.342;2023-02-01T02:31:21;7.70;99.90
17348;DHT22;8791;50.876;4.342;2023-02-01T02:34:01;7.70;99.90
17348;DHT22;8791;50.876;4.342;2023-02-01T02:36:37;7.60;99.90
17348;DHT22;8791;50.876;4.342;2023-02-01T02:39:07;7.70;99.90
17348;DHT22;8791;50.876;4.342;2023-02-01T02:41:40;7.90;99.90
17348;DHT22;8791;50.876;4.342;2023-02-01T02:44:34;7.80;99.90
17348;DHT22;8791;50.876;4.342;2023-02-01T02:47:25;7.90;99.90
17348;DHT22;8791;50.876;4.342;2023-02-01T02:50:05;7.80;99.90
17348;DHT22;8791;50.876;4.342;2023-02-01T02:53:00;7.90;99.90
17348;DHT22;8791;50.876;4.342;2023-02-01T02:55:45;7.90;99.90
17348;DHT22;8791;50.876;4.342;2023-02-01T02:58:13;7.90;99.90
17348;DHT22;8791;50.876;4.342;2023-02-01T03:00:59;7.90;99.90
17348;DHT22;8791;50.876;4.342;2023-02-01T03:03:48;7.80;99.90
17348;DHT22;8791;50.876;4.342;2023-02-01T03:06:36;7.70;99.90
17348;DHT22;8791;50.876;4.342;2023-02-01T03:09:08;7.70;99.90
17348;DHT22;8791;50.876;4.342;2023-02-01T03:11:37;7.60;99.90
17348;DHT22;8791;50.876;4.342;2023-02-01T03:14:25;7.50;99.90
17348;DHT22;8791;50.876;4.342;2023-02-01T03:16:58;7.50;99.90
17348;DHT22;8791;50.876;4.342;2023-02-01T03:19:32;7.50;99.90
17348;DHT22;8791;50.876;4.342;2023-02-01T03:22:03;7.50;99.90
17348;DHT22;8791;50.876;4.342;2023-02-01T03:24:34;7.30;99.90
17348;DHT22;8791;50.876;4.342;2023-02-01T03:27:07;7.20;99.90
17348;DHT22;8791;50.876;4.342;2023-02-01T03:29:39;7.30;99.90
17348;DHT22;8791;50.876;4.342;2023-02-01T03:32:07;7.20;99.90
17348;DHT22;8791;50.876;4.342;2023-02-01T03:34:35;7.40;99.90
17348;DHT22;8791;50.876;4.342;2023-02-01T03:37:07;7.40;99.90
17348;DHT22;8791;50.876;4.342;2023-02-01T03:39:38;7.30;99.90
17348;DHT22;8791;50.876;4.342;2023-02-01T03:42:10;7.40;99.90
17348;DHT22;8791;50.876;4.342;2023-02-01T03:44:41;7.30;99.90
17348;DHT22;8791;50.876;4.342;2023-02-01T03:47:14;7.30;99.90
17348;DHT22;8791;50.876;4.342;2023-02-01T03:49:47;7.30;99.90
17348;DHT22;8791;50.876;4.342;2023-02-01T03:52:21;7.40;99.90
17348;DHT22;8791;50.876;4.342;2023-02-01T03:54:49;7.30;99.90
17348;DHT22;8791;50.876;4.342;2023-02-01T03:57:22;7.30;99.90
17348;DHT22;8791;50.876;4.342;2023-02-01T03:59:50;7.30;99.90
17348;DHT22;8791;50.876;4.342;2023-02-01T04:02:17;7.30;99.90
17348;DHT22;8791;50.876;4.342;2023-02-01T04:04:43;7.20;99.90
17348;DHT22;8791;50.876;4.342;2023-02-01T04:07:11;7.10;99.90
17348;DHT22;8791;50.876;4.342;2023-02-01T04:09:39;7.10;99.90
17348;DHT22;8791;50.876;4.342;2023-02-01T04:12:06;7.20;99.90
17348;DHT22;8791;50.876;4.342;2023-02-01T04:14:33;7.10;99.90
17348;DHT22;8791;50.876;4.342;2023-02-01T04:17:00;7.00;99.90
17348;DHT22;8791;50.876;4.342;2023-02-01T04:19:26;7.00;99.90
17348;DHT22;8791;50.876;4.342;2023-02-01T04:21:53;7.00;99.90
17348;DHT22;8791;50.876;4.342;2023-02-01T04:24:20;7.00;99.90
17348;DHT22;8791;50.876;4.342;2023-02-01T04:26:48;7.00;99.90
17348;DHT22;8791;50.876;4.342;2023-02-01T04:29:15;7.00;99.90
17348;DHT22;8791;50.876;4.342;2023-02-01T04:31:42;7.00;99.90
17348;DHT22;8791;50.876;4.342;2023-02-01T04:34:08;7.10;99.90
17348;DHT22;8791;50.876;4.342;2023-02-01T04:36:35;7.00;99.90
17348;DHT22;8791;50.876;4.342;2023-02-01T04:39:02;7.00;99.90
17348;DHT22;8791;50.876;4.342;2023-02-01T04:41:29;7.10;99.90
17348;DHT22;8791;50.876;4.342;2023-02-01T04:43:57;7.00;99.90
17348;DHT22;8791;50.876;4.342;2023-02-01T04:46:24;7.00;99.90
17348;DHT22;8791;50.876;4.342;2023-02-01T04:48:51;6.90;99.90
17348;DHT22;8791;50.876;4.342;2023-02-01T04:51:18;6.80;99.90
17348;DHT22;8791;50.876;4.342;2023-02-01T04:53:44;6.70;99.90
17348;DHT22;8791;50.876;4.342;2023-02-01T04:56:11;6.80;99.90
17348;DHT22;8791;50.876;4.342;2023-02-01T04:58:38;6.80;99.90
17348;DHT22;8791;50.876;4.342;2023-02-01T05:01:06;6.70;99.90
17348;DHT22;8791;50.876;4.342;2023-02-01T05:03:34;6.70;99.90
17348;DHT22;8791;50.876;4.342;2023-02-01T05:06:01;6.70;99.90
17348;DHT22;8791;50.876;4.342;2023-02-01T05:08:29;6.80;99.90
17348;DHT22;8791;50.876;4.342;2023-02-01T05:10:56;6.80;99.90
17348;DHT22;8791;50.876;4.342;2023-02-01T05:13:24;6.60;99.90
17348;DHT22;8791;50.876;4.342;2023-02-01T05:16:10;6.60;99.90
17348;DHT22;8791;50.876;4.342;2023-02-01T05:18:36;6.60;99.90
17348;DHT22;8791;50.876;4.342;2023-02-01T05:21:03;6.50;99.90
17348;DHT22;8791;50.876;4.342;2023-02-01T05:23:30;6.50;99.90
17348;DHT22;8791;50.876;4.342;2023-02-01T05:26:00;6.30;99.90
17348;DHT22;8791;50.876;4.342;2023-02-01T05:28:28;6.40;99.90
17348;DHT22;8791;50.876;4.342;2023-02-01T05:30:55;6.50;99.90
17348;DHT22;8791;50.876;4.342;2023-02-01T05:33:23;6.40;99.90
17348;DHT22;8791;50.876;4.342;2023-02-01T05:35:49;6.40;99.90
17348;DHT22;8791;50.876;4.342;2023-02-01T05:38:16;6.30;99.90
17348;DHT22;8791;50.876;4.342;2023-02-01T05:40:43;6.40;99.90
17348;DHT22;8791;50.876;4.342;2023-02-01T05:43:15;6.40;99.90
17348;DHT22;8791;50.876;4.342;2023-02-01T05:45:42;6.50;99.90
17348;DHT22;8791;50.876;4.342;2023-02-01T05:48:09;6.40;99.90
17348;DHT22;8791;50.876;4.342;2023-02-01T05:50:37;6.40;99.90
17348;DHT22;8791;50.876;4.342;2023-02-01T05:53:03;6.30;99.90
17348;DHT22;8791;50.876;4.342;2023-02-01T05:55:30;6.30;99.90
17348;DHT22;8791;50.876;4.342;2023-02-01T05:57:57;6.10;99.90
17348;DHT22;8791;50.876;4.342;2023-02-01T06:00:24;6.20;99.90
17348;DHT22;8791;50.876;4.342;2023-02-01T06:02:51;6.20;99.90
17348;DHT22;8791;50.876;4.342;2023-02-01T06:05:18;6.20;99.90
17348;DHT22;8791;50.876;4.342;2023-02-01T06:07:46;6.10;99.90
17348;DHT22;8791;50.876;4.342;2023-02-01T06:10:13;6.10;99.90
17348;DHT22;8791;50.876;4.342;2023-02-01T06:12:40;6.00;99.90
17348;DHT22;8791;50.876;4.342;2023-02-01T06:15:08;6.00;99.90
17348;DHT22;8791;50.876;4.342;2023-02-01T06:17:35;6.10;99.90
17348;DHT22;8791;50.876;4.342;2023-02-01T06:20:02;6.20;99.90
17348;DHT22;8791;50.876;4.342;2023-02-01T06:22:29;6.10;99.90
17348;DHT22;8791;50.876;4.342;2023-02-01T06:24:57;6.10;99.90
17348;DHT22;8791;50.876;4.342;2023-02-01T06:27:24;5.90;99.90
17348;DHT22;8791;50.876;4.342;2023-02-01T06:29:51;6.00;99.90
17348;DHT22;8791;50.876;4.342;2023-02-01T06:32:18;6.10;99.90
17348;DHT22;8791;50.876;4.342;2023-02-01T06:34:45;6.20;99.90
17348;DHT22;8791;50.876;4.342;2023-02-01T06:37:12;6.20;99.90
17348;DHT22;8791;50.876;4.342;2023-02-01T06:39:39;6.20;99.90
17348;DHT22;8791;50.876;4.342;2023-02-01T06:42:07;6.20;99.90
17348;DHT22;8791;50.876;4.342;2023-02-01T06:44:34;6.30;99.90
17348;DHT22;8791;50.876;4.342;2023-02-01T06:47:02;6.10;99.90
17348;DHT22;8791;50.876;4.342;2023-02-01T06:49:29;6.10;99.90
17348;DHT22;8791;50.876;4.342;2023-02-01T06:51:56;6.20;99.90
17348;DHT22;8791;50.876;4.342;2023-02-01T06:54:25;6.10;99.90
17348;DHT22;8791;50.876;4.342;2023-02-01T06:56:52;6.20;99.90
17348;DHT22;8791;50.876;4.342;2023-02-01T06:59:20;6.30;99.90
17348;DHT22;8791;50.876;4.342;2023-02-01T07:01:47;6.30;99.90
17348;DHT22;8791;50.876;4.342;2023-02-01T07:04:14;6.20;99.90
17348;DHT22;8791;50.876;4.342;2023-02-01T07:06:41;6.20;99.90
17348;DHT22;8791;50.876;4.342;2023-02-01T07:09:08;6.30;99.90
17348;DHT22;8791;50.876;4.342;2023-02-01T07:11:35;6.30;99.90
17348;DHT22;8791;50.876;4.342;2023-02-01T07:14:02;6.30;99.90
17348;DHT22;8791;50.876;4.342;2023-02-01T07:16:31;6.40;99.90
17348;DHT22;8791;50.876;4.342;2023-02-01T07:18:57;6.40;99.90
17348;DHT22;8791;50.876;4.342;2023-02-01T07:21:25;6.40;99.90
17348;DHT22;8791;50.876;4.342;2023-02-01T07:23:53;6.30;99.90
17348;DHT22;8791;50.876;4.342;2023-02-01T07:26:20;6.20;99.90
17348;DHT22;8791;50.876;4.342;2023-02-01T07:28:47;6.30;99.90
17348;DHT22;8791;50.876;4.342;2023-02-01T07:31:15;6.30;99.90
17348;DHT22;8791;50.876;4.342;2023-02-01T07:33:45;6.20;99.90
17348;DHT22;8791;50.876;4.342;2023-02-01T07:36:13;6.10;99.90
17348;DHT22;8791;50.876;4.342;2023-02-01T07:38:40;6.30;99.90
17348;DHT22;8791;50.876;4.342;2023-02-01T07:41:08;6.20;99.90
17348;DHT22;8791;50.876;4.342;2023-02-01T07:43:35;6.50;99.90
17348;DHT22;8791;50.876;4.342;2023-02-01T07:46:03;6.40;99.90
17348;DHT22;8791;50.876;4.342;2023-02-01T07:48:31;6.30;99.90
17348;DHT22;8791;50.876;4.342;2023-02-01T07:51:01;6.20;99.90
17348;DHT22;8791;50.876;4.342;2023-02-01T07:53:29;6.30;99.90
17348;DHT22;8791;50.876;4.342;2023-02-01T07:55:56;6.20;99.90
17348;DHT22;8791;50.876;4.342;2023-02-01T07:58:24;6.20;99.90
17348;DHT22;8791;50.876;4.342;2023-02-01T08:00:51;6.30;99.90
17348;DHT22;8791;50.876;4.342;2023-02-01T08:03:35;6.40;99.90
17348;DHT22;8791;50.876;4.342;2023-02-01T08:06:04;6.40;99.90
17348;DHT22;8791;50.876;4.342;2023-02-01T08:08:32;6.40;99.90
17348;DHT22;8791;50.876;4.342;2023-02-01T08:10:59;6.40;99.90
17348;DHT22;8791;50.876;4.342;2023-02-01T08:13:26;6.50;99.90
17348;DHT22;8791;50.876;4.342;2023-02-01T08:15:57;6.70;99.90
17348;DHT22;8791;50.876;4.342;2023-02-01T08:18:24;6.50;99.90
17348;DHT22;8791;50.876;4.342;2023-02-01T08:20:51;6.50;99.90
17348;DHT22;8791;50.876;4.342;2023-02-01T08:23:19;6.50;99.90
17348;DHT22;8791;50.876;4.342;2023-02-01T08:25:46;6.50;99.90
17348;DHT22;8791;50.876;4.342;2023-02-01T08:28:13;6.50;99.90
17348;DHT22;8791;50.876;4.342;2023-02-01T08:30:40;6.60;99.90
17348;DHT22;8791;50.876;4.342;2023-02-01T08:33:07;6.50;99.90
17348;DHT22;8791;50.876;4.342;2023-02-01T08:35:35;6.60;99.90
17348;DHT22;8791;50.876;4.342;2023-02-01T08:38:02;6.70;99.90
17348;DHT22;8791;50.876;4.342;2023-02-01T08:40:31;6.70;99.90
17348;DHT22;8791;50.876;4.342;2023-02-01T08:42:58;6.90;99.90
17348;DHT22;8791;50.876;4.342;2023-02-01T08:45:28;6.80;99.90
17348;DHT22;8791;50.876;4.342;2023-02-01T08:47:56;6.90;99.90
17348;DHT22;8791;50.876;4.342;2023-02-01T08:50:22;6.90;99.90
17348;DHT22;8791;50.876;4.342;2023-02-01T08:52:50;6.90;99.90
17348;DHT22;8791;50.876;4.342;2023-02-01T08:55:17;7.00;99.90
17348;DHT22;8791;50.876;4.342;2023-02-01T08:57:46;7.00;99.90
17348;DHT22;8791;50.876;4.342;2023-02-01T09:00:16;7.10;99.90
17348;DHT22;8791;50.876;4.342;2023-02-01T09:02:43;7.10;99.90
17348;DHT22;8791;50.876;4.342;2023-02-01T09:05:10;7.20;99.90
17348;DHT22;8791;50.876;4.342;2023-02-01T09:07:37;7.20;99.90
17348;DHT22;8791;50.876;4.342;2023-02-01T09:10:05;7.10;99.90
17348;DHT22;8791;50.876;4.342;2023-02-01T09:12:33;7.10;99.90
17348;DHT22;8791;50.876;4.342;2023-02-01T09:15:01;7.10;99.90
17348;DHT22;8791;50.876;4.342;2023-02-01T09:17:29;7.30;99.90
17348;DHT22;8791;50.876;4.342;2023-02-01T09:19:55;7.40;99.90
17348;DHT22;8791;50.876;4.342;2023-02-01T09:22:22;7.30;99.90
17348;DHT22;8791;50.876;4.342;2023-02-01T09:24:49;7.30;99.90
17348;DHT22;8791;50.876;4.342;2023-02-01T09:27:16;7.20;99.90
17348;DHT22;8791;50.876;4.342;2023-02-01T09:29:43;7.20;99.90
17348;DHT22;8791;50.876;4.342;2023-02-01T09:32:11;7.40;99.90
17348;DHT22;8791;50.876;4.342;2023-02-01T09:34:38;7.60;99.90
17348;DHT22;8791;50.876;4.342;2023-02-01T09:37:04;7.70;99.90
17348;DHT22;8791;50.876;4.342;2023-02-01T09:39:31;7.80;99.90
17348;DHT22;8791;50.876;4.342;2023-02-01T09:42:07;7.90;99.90
17348;DHT22;8791;50.876;4.342;2023-02-01T09:45:09;7.70;99.90
17348;DHT22;8791;50.876;4.342;2023-02-01T09:47:45;7.60;99.90
17348;DHT22;8791;50.876;4.342;2023-02-01T09:50:15;7.70;99.90
17348;DHT22;8791;50.876;4.342;2023-02-01T09:52:52;7.80;99.90
17348;DHT22;8791;50.876;4.342;2023-02-01T09:55:24;7.80;99.90
17348;DHT22;8791;50.876;4.342;2023-02-01T09:57:57;7.80;99.90
17348;DHT22;8791;50.876;4.342;2023-02-01T10:00:27;7.90;99.90
17348;DHT22;8791;50.876;4.342;2023-02-01T10:02:57;8.10;99.90
17348;DHT22;8791;50.876;4.342;2023-02-01T10:05:38;8.20;99.90
17348;DHT22;8791;50.876;4.342;2023-02-01T10:08:12;8.30;99.90
17348;DHT22;8791;50.876;4.342;2023-02-01T10:10:43;8.40;99.90
17348;DHT22;8791;50.876;4.342;2023-02-01T10:13:24;8.40;99.90
17348;DHT22;8791;50.876;4.342;2023-02-01T10:16:11;8.30;99.90
17348;DHT22;8791;50.876;4.342;2023-02-01T10:18:56;8.20;99.90
17348;DHT22;8791;50.876;4.342;2023-02-01T10:21:35;8.30;99.90
17348;DHT22;8791;50.876;4.342;2023-02-01T10:24:22;8.30;99.90
17348;DHT22;8791;50.876;4.342;2023-02-01T10:26:55;8.40;99.90
17348;DHT22;8791;50.876;4.342;2023-02-01T10:29:27;8.40;99.90
17348;DHT22;8791;50.876;4.342;2023-02-01T10:31:55;8.40;99.90
17348;DHT22;8791;50.876;4.342;2023-02-01T10:34:26;8.40;99.90
17348;DHT22;8791;50.876;4.342;2023-02-01T10:36:56;8.40;99.90
17348;DHT22;8791;50.876;4.342;2023-02-01T10:39:23;8.50;99.90
17348;DHT22;8791;50.876;4.342;2023-02-01T10:41:50;8.40;99.90
17348;DHT22;8791;50.876;4.342;2023-02-01T10:44:20;8.50;99.90
17348;DHT22;8791;50.876;4.342;2023-02-01T10:46:49;8.50;99.90
17348;DHT22;8791;50.876;4.342;2023-02-01T10:49:18;8.60;99.90
17348;DHT22;8791;50.876;4.342;2023-02-01T10:51:49;8.70;99.90
17348;DHT22;8791;50.876;4.342;2023-02-01T10:54:19;8.70;99.90
17348;DHT22;8791;50.876;4.342;2023-02-01T10:56:47;8.80;99.90
17348;DHT22;8791;50.876;4.342;2023-02-01T10:59:16;8.90;99.90
17348;DHT22;8791;50.876;4.342;2023-02-01T11:01:45;9.00;99.90
17348;DHT22;8791;50.876;4.342;2023-02-01T11:04:13;9.00;99.90
17348;DHT22;8791;50.876;4.342;2023-02-01T11:06:42;9.00;99.90
17348;DHT22;8791;50.876;4.342;2023-02-01T11:09:18;9.00;99.90
17348;DHT22;8791;50.876;4.342;2023-02-01T11:11:58;9.10;99.90
17348;DHT22;8791;50.876;4.342;2023-02-01T11:14:38;9.30;99.90
17348;DHT22;8791;50.876;4.342;2023-02-01T11:17:21;9.40;99.90
17348;DHT22;8791;50.876;4.342;2023-02-01T11:19:57;9.40;99.90
17348;DHT22;8791;50.876;4.342;2023-02-01T11:22:25;9.50;99.90
17348;DHT22;8791;50.876;4.342;2023-02-01T11:24:55;9.70;99.90
17348;DHT22;8791;50.876;4.342;2023-02-01T11:27:24;9.80;99.90
17348;DHT22;8791;50.876;4.342;2023-02-01T11:29:55;9.80;99.90
17348;DHT22;8791;50.876;4.342;2023-02-01T11:32:23;9.50;99.90
17348;DHT22;8791;50.876;4.342;2023-02-01T11:34:52;9.50;99.90
17348;DHT22;8791;50.876;4.342;2023-02-01T11:37:23;9.50;99.90
17348;DHT22;8791;50.876;4.342;2023-02-01T11:39:56;9.60;99.90
17348;DHT22;8791;50.876;4.342;2023-02-01T11:42:23;9.60;99.90
17348;DHT22;8791;50.876;4.342;2023-02-01T11:44:51;9.50;99.90
17348;DHT22;8791;50.876;4.342;2023-02-01T11:47:39;9.50;99.90
17348;DHT22;8791;50.876;4.342;2023-02-01T11:50:28;9.50;99.90
17348;DHT22;8791;50.876;4.342;2023-02-01T11:56:05;9.60;99.90
17348;DHT22;8791;50.876;4.342;2023-02-01T11:59:08;9.80;99.90
17348;DHT22;8791;50.876;4.342;2023-02-01T12:01:55;9.90;99.90
17348;DHT22;8791;50.876;4.342;2023-02-01T12:07:40;9.80;99.90
17348;DHT22;8791;50.876;4.342;2023-02-01T12:10:23;9.80;99.90
17348;DHT22;8791;50.876;4.342;2023-02-01T12:13:01;9.80;99.90
17348;DHT22;8791;50.876;4.342;2023-02-01T12:15:42;9.90;99.90
17348;DHT22;8791;50.876;4.342;2023-02-01T12:18:36;10.00;99.90
17348;DHT22;8791;50.876;4.342;2023-02-01T12:21:17;10.20;99.90
17348;DHT22;8791;50.876;4.342;2023-02-01T12:24:03;10.30;99.90
17348;DHT22;8791;50.876;4.342;2023-02-01T12:26:41;10.40;99.90
17348;DHT22;8791;50.876;4.342;2023-02-01T12:32:22;10.50;99.90
17348;DHT22;8791;50.876;4.342;2023-02-01T12:35:00;10.50;99.90
17348;DHT22;8791;50.876;4.342;2023-02-01T12:37:43;10.70;99.90
17348;DHT22;8791;50.876;4.342;2023-02-01T12:40:28;10.70;99.90
17348;DHT22;8791;50.876;4.342;2023-02-01T12:43:02;10.70;99.90
17348;DHT22;8791;50.876;4.342;2023-02-01T12:45:34;10.90;99.90
17348;DHT22;8791;50.876;4.342;2023-02-01T12:48:16;11.00;99.90
17348;DHT22;8791;50.876;4.342;2023-02-01T12:50:50;10.90;99.90
17348;DHT22;8791;50.876;4.342;2023-02-01T12:53:23;10.90;99.90
17348;DHT22;8791;50.876;4.342;2023-02-01T12:55:53;10.90;99.90
17348;DHT22;8791;50.876;4.342;2023-02-01T12:58:24;10.90;99.90
17348;DHT22;8791;50.876;4.342;2023-02-01T13:00:58;10.90;99.90
17348;DHT22;8791;50.876;4.342;2023-02-01T13:03:34;11.00;99.90
17348;DHT22;8791;50.876;4.342;2023-02-01T13:06:06;11.10;99.90
17348;DHT22;8791;50.876;4.342;2023-02-01T13:08:41;11.20;99.90
17348;DHT22;8791;50.876;4.342;2023-02-01T13:11:13;10.90;99.90
17348;DHT22;8791;50.876;4.342;2023-02-01T13:13:49;10.90;99.90
17348;DHT22;8791;50.876;4.342;2023-02-01T13:16:24;11.00;99.90
17348;DHT22;8791;50.876;4.342;2023-02-01T13:19:02;11.00;99.90
17348;DHT22;8791;50.876;4.342;2023-02-01T13:21:33;11.00;99.90
17348;DHT22;8791;50.876;4.342;2023-02-01T13:24:00;11.00;99.90
17348;DHT22;8791;50.876;4.342;2023-02-01T13:26:28;11.00;99.90
17348;DHT22;8791;50.876;4.342;2023-02-01T13:28:58;11.10;99.90
17348;DHT22;8791;50.876;4.342;2023-02-01T13:31:50;11.00;99.90
17348;DHT22;8791;50.876;4.342;2023-02-01T13:34:53;11.00;99.90
17348;DHT22;8791;50.876;4.342;2023-02-01T13:37:36;11.00;99.90
17348;DHT22;8791;50.876;4.342;2023-02-01T13:40:26;11.00;99.90
17348;DHT22;8791;50.876;4.342;2023-02-01T13:42:59;11.00;99.90
17348;DHT22;8791;50.876;4.342;2023-02-01T13:45:29;11.20;99.90
17348;DHT22;8791;50.876;4.342;2023-02-01T13:48:01;10.90;99.90
17348;DHT22;8791;50.876;4.342;2023-02-01T13:50:31;11.00;99.90
17348;DHT22;8791;50.876;4.342;2023-02-01T13:53:03;11.10;99.90
17348;DHT22;8791;50.876;4.342;2023-02-01T13:55:33;11.30;99.90
17348;DHT22;8791;50.876;4.342;2023-02-01T13:58:04;11.40;99.90
17348;DHT22;8791;50.876;4.342;2023-02-01T14:00:33;11.30;99.90
17348;DHT22;8791;50.876;4.342;2023-02-01T14:03:22;11.20;99.90
17348;DHT22;8791;50.876;4.342;2023-02-01T14:06:18;11.20;99.90
17348;DHT22;8791;50.876;4.342;2023-02-01T14:09:16;11.20;99.90
17348;DHT22;8791;50.876;4.342;2023-02-01T14:11:46;11.10;99.90
17348;DHT22;8791;50.876;4.342;2023-02-01T14:17:39;11.10;99.90
17348;DHT22;8791;50.876;4.342;2023-02-01T14:23:21;10.90;99.90
17348;DHT22;8791;50.876;4.342;2023-02-01T14:26:01;10.90;99.90
17348;DHT22;8791;50.876;4.342;2023-02-01T14:28:29;10.90;99.90
17348;DHT22;8791;50.876;4.342;2023-02-01T14:30:57;10.90;99.90
17348;DHT22;8791;50.876;4.342;2023-02-01T14:33:27;10.90;99.90
17348;DHT22;8791;50.876;4.342;2023-02-01T14:36:06;10.80;99.90
17348;DHT22;8791;50.876;4.342;2023-02-01T14:38:36;10.80;99.90
17348;DHT22;8791;50.876;4.342;2023-02-01T14:41:26;10.70;99.90
17348;DHT22;8791;50.876;4.342;2023-02-01T14:44:23;10.70;99.90
17348;DHT22;8791;50.876;4.342;2023-02-01T14:53:12;10.60;99.90
17348;DHT22;8791;50.876;4.342;2023-02-01T14:55:43;10.60;99.90
17348;DHT22;8791;50.876;4.342;2023-02-01T14:58:16;10.50;99.90
17348;DHT22;8791;50.876;4.342;2023-02-01T15:00:51;10.50;99.90
17348;DHT22;8791;50.876;4.342;2023-02-01T15:03:44;10.50;99.90
17348;DHT22;8791;50.876;4.342;2023-02-01T15:06:24;10.60;99.90
17348;DHT22;8791;50.876;4.342;2023-02-01T15:08:54;10.70;99.90
17348;DHT22;8791;50.876;4.342;2023-02-01T15:11:22;10.70;99.90
17348;DHT22;8791;50.876;4.342;2023-02-01T15:13:50;10.70;99.90
17348;DHT22;8791;50.876;4.342;2023-02-01T15:16:20;10.60;99.90
17348;DHT22;8791;50.876;4.342;2023-02-01T15:18:48;10.50;99.90
17348;DHT22;8791;50.876;4.342;2023-02-01T15:21:18;10.50;99.90
17348;DHT22;8791;50.876;4.342;2023-02-01T15:23:45;10.40;99.90
17348;DHT22;8791;50.876;4.342;2023-02-01T15:26:26;10.40;99.90
17348;DHT22;8791;50.876;4.342;2023-02-01T15:28:53;10.50;99.90
17348;DHT22;8791;50.876;4.342;2023-02-01T15:31:33;10.60;99.90
17348;DHT22;8791;50.876;4.342;2023-02-01T15:34:00;10.50;99.90
17348;DHT22;8791;50.876;4.342;2023-02-01T15:36:27;10.50;99.90
17348;DHT22;8791;50.876;4.342;2023-02-01T15:39:19;10.40;99.90
17348;DHT22;8791;50.876;4.342;2023-02-01T15:41:52;10.40;99.90
17348;DHT22;8791;50.876;4.342;2023-02-01T15:44:27;10.30;99.90
17348;DHT22;8791;50.876;4.342;2023-02-01T15:46:55;10.40;99.90
17348;DHT22;8791;50.876;4.342;2023-02-01T15:49:26;10.40;99.90
17348;DHT22;8791;50.876;4.342;2023-02-01T15:51:54;10.40;99.90
17348;DHT22;8791;50.876;4.342;2023-02-01T15:54:25;10.40;99.90
17348;DHT22;8791;50.876;4.342;2023-02-01T15:56:55;10.40;99.90
17348;DHT22;8791;50.876;4.342;2023-02-01T15:59:24;10.40;99.90
17348;DHT22;8791;50.876;4.342;2023-02-01T16:01:52;10.40;99.90
17348;DHT22;8791;50.876;4.342;2023-02-01T16:04:21;10.30;99.90
17348;DHT22;8791;50.876;4.342;2023-02-01T16:06:52;10.30;99.90
17348;DHT22;8791;50.876;4.342;2023-02-01T16:09:21;10.30;99.90
17348;DHT22;8791;50.876;4.342;2023-02-01T16:11:55;10.20;99.90
17348;DHT22;8791;50.876;4.342;2023-02-01T16:14:23;10.20;99.90
17348;DHT22;8791;50.876;4.342;2023-02-01T16:16:50;10.20;99.90
17348;DHT22;8791;50.876;4.342;2023-02-01T16:19:18;10.00;99.90
17348;DHT22;8791;50.876;4.342;2023-02-01T16:21:45;9.90;99.90
17348;DHT22;8791;50.876;4.342;2023-02-01T16:24:12;10.00;99.90
17348;DHT22;8791;50.876;4.342;2023-02-01T16:26:39;10.00;99.90
17348;DHT22;8791;50.876;4.342;2023-02-01T16:29:07;10.10;99.90
17348;DHT22;8791;50.876;4.342;2023-02-01T16:31:36;10.10;99.90
17348;DHT22;8791;50.876;4.342;2023-02-01T16:34:04;10.00;99.90
17348;DHT22;8791;50.876;4.342;2023-02-01T16:36:32;10.00;99.90
17348;DHT22;8791;50.876;4.342;2023-02-01T16:38:59;10.00;99.90
17348;DHT22;8791;50.876;4.342;2023-02-01T16:41:26;10.20;99.90
17348;DHT22;8791;50.876;4.342;2023-02-01T16:43:55;10.10;99.90
17348;DHT22;8791;50.876;4.342;2023-02-01T16:46:25;10.10;99.90
17348;DHT22;8791;50.876;4.342;2023-02-01T16:48:54;10.00;99.90
17348;DHT22;8791;50.876;4.342;2023-02-01T16:51:24;10.00;99.90